Time;durP1;ratioP1;P1;durP2;ratioP2;P2;SDS_P1;SDS_P2;PMS_P1;PMS_P2;Temp;Humidity;BMP_temperature;BMP_pressure;BME280_temperature;BME280_humidity;BME280_pressure;Samples;Min_cycle;Max_cycle;Signal;HPM_P1;HPM_P2
2024/04/25 00:01:37;;;;;;;3.67;3.33;;;16.70;48.70;;;;;;5191976;27;20502;-79
2024/04/25 00:04:07;;;;;;;3.50;3.20;;;16.70;48.80;;;;;;5160787;27;20587;-79
2024/04/25 00:06:37;;;;;;;4.70;3.00;;;16.60;48.70;;;;;;5177794;27;20522;-79
2024/04/25 00:09:07;;;;;;;2.70;2.50;;;16.60;48.70;;;;;;5167582;27;21015;-79
2024/04/25 00:11:38;;;;;;;3.40;3.10;;;16.60;48.70;;;;;;5192279;27;20489;-79
2024/04/25 00:14:11;;;;;;;3.80;3.20;;;16.60;48.80;;;;;;5178453;27;20474;-78
2024/04/25 00:16:41;;;;;;;3.97;3.13;;;16.50;48.60;;;;;;5178671;27;20586;-79
2024/04/25 00:19:11;;;;;;;2.90;2.67;;;16.50;48.70;;;;;;5178639;27;20541;-79
2024/04/25 00:21:42;;;;;;;3.53;3.00;;;16.50;48.70;;;;;;5178675;27;20471;-79
2024/04/25 00:24:12;;;;;;;3.40;3.10;;;16.50;48.60;;;;;;5178725;27;20466;-78
2024/04/25 00:26:42;;;;;;;3.60;2.87;;;16.50;48.70;;;;;;5178871;27;20523;-79
2024/04/25 00:29:16;;;;;;;3.03;2.80;;;16.40;48.60;;;;;;5149993;27;20459;-79
2024/04/25 00:31:46;;;;;;;3.37;3.10;;;16.40;48.70;;;;;;5176886;27;20466;-78
2024/04/25 00:34:16;;;;;;;3.80;2.77;;;16.40;48.70;;;;;;5178399;27;20885;-78
2024/04/25 00:36:46;;;;;;;2.90;2.70;;;16.40;48.70;;;;;;5177364;27;20941;-78
2024/04/25 00:39:16;;;;;;;3.97;3.20;;;16.40;48.70;;;;;;5148909;27;20536;-78
2024/04/25 00:41:46;;;;;;;3.43;2.70;;;16.30;48.60;;;;;;5180426;27;20497;-79
2024/04/25 00:44:19;;;;;;;2.70;2.50;;;16.30;48.60;;;;;;5181211;27;20578;-77
2024/04/25 00:46:49;;;;;;;3.23;2.90;;;16.30;48.50;;;;;;5178599;27;20475;-77
2024/04/25 00:49:19;;;;;;;3.93;3.53;;;16.30;48.60;;;;;;5158845;27;20542;-77
2024/04/25 00:51:50;;;;;;;3.00;2.70;;;16.30;48.50;;;;;;5179217;27;20554;-76
2024/04/25 00:54:19;;;;;;;3.93;2.83;;;16.30;48.60;;;;;;5196354;27;21156;-78
2024/04/25 00:56:50;;;;;;;3.57;2.70;;;16.30;48.50;;;;;;5167866;27;20454;-78
2024/04/25 00:59:23;;;;;;;2.90;2.70;;;16.20;48.60;;;;;;5165407;27;20554;-78
2024/04/25 01:01:53;;;;;;;3.43;2.80;;;16.30;48.50;;;;;;5189255;27;20474;-79
2024/04/25 01:04:26;;;;;;;2.90;2.70;;;16.20;48.60;;;;;;5201331;27;21132;-77
2024/04/25 01:06:56;;;;;;;2.70;2.50;;;16.20;48.40;;;;;;5192405;27;20512;-77
2024/04/25 01:09:26;;;;;;;3.20;2.90;;;16.20;48.40;;;;;;5186329;27;20509;-76
2024/04/25 01:11:57;;;;;;;2.70;2.50;;;16.20;48.40;;;;;;5204585;27;20499;-76
2024/04/25 01:14:30;;;;;;;2.57;2.47;;;16.20;48.40;;;;;;5189134;27;20473;-78
2024/04/25 01:17:00;;;;;;;2.73;2.47;;;16.20;48.40;;;;;;5177766;27;20490;-79
2024/04/25 01:19:30;;;;;;;2.70;2.50;;;16.10;48.20;;;;;;5191106;27;20486;-76
2024/04/25 01:22:00;;;;;;;3.47;3.03;;;16.20;48.50;;;;;;5206721;27;20606;-78
2024/04/25 01:24:30;;;;;;;2.37;2.27;;;16.10;48.40;;;;;;5156386;27;20482;-78
2024/04/25 01:27:04;;;;;;;3.00;2.33;;;16.10;48.50;;;;;;5153970;27;20517;-78
2024/04/25 01:29:34;;;;;;;2.43;2.33;;;16.00;48.30;;;;;;5161338;27;20485;-76
2024/04/25 01:32:04;;;;;;;6.60;2.50;;;16.10;48.50;;;;;;5149390;27;20541;-78
2024/04/25 01:34:34;;;;;;;4.37;2.97;;;16.00;48.20;;;;;;5190919;27;20545;-76
2024/04/25 01:37:03;;;;;;;2.87;2.67;;;16.00;48.30;;;;;;5177375;27;20575;-78
2024/04/25 01:39:33;;;;;;;2.77;2.33;;;16.00;48.40;;;;;;5177451;27;20486;-78
2024/04/25 01:42:06;;;;;;;2.30;2.20;;;16.00;48.40;;;;;;5203945;27;20565;-78
2024/04/25 01:44:36;;;;;;;2.57;2.37;;;16.00;48.40;;;;;;5199689;27;20482;-75
2024/04/25 01:47:06;;;;;;;2.60;2.40;;;16.00;48.50;;;;;;5183455;27;20462;-77
2024/04/25 01:49:37;;;;;;;2.53;2.20;;;15.90;48.30;;;;;;5212832;27;20484;-77
2024/04/25 01:52:07;;;;;;;2.83;2.43;;;15.90;48.40;;;;;;5213146;27;20512;-76
2024/04/25 01:54:37;;;;;;;2.30;2.20;;;15.90;48.30;;;;;;5213787;27;20472;-76
2024/04/25 01:57:10;;;;;;;2.50;2.30;;;15.90;48.50;;;;;;5213570;27;20462;-78
2024/04/25 01:59:41;;;;;;;2.40;2.30;;;15.90;48.40;;;;;;5213148;27;21037;-78
2024/04/25 02:02:11;;;;;;;2.47;2.30;;;15.90;48.50;;;;;;5212972;27;20481;-78
2024/04/25 02:04:41;;;;;;;2.10;2.00;;;15.90;48.40;;;;;;5184524;27;20476;-78
2024/04/25 02:07:12;;;;;;;2.40;2.20;;;15.80;48.30;;;;;;5192698;27;20533;-79
2024/04/25 02:09:42;;;;;;;2.67;2.47;;;15.80;48.40;;;;;;5193178;27;20536;-79
2024/04/25 02:12:18;;;;;;;2.17;2.07;;;15.80;48.30;;;;;;5167280;27;20478;-77
2024/04/25 02:14:49;;;;;;;2.23;2.13;;;15.80;48.30;;;;;;5194573;27;20533;-77
2024/04/25 02:17:19;;;;;;;1.83;1.73;;;15.70;48.40;;;;;;5171487;27;20496;-77
2024/04/25 02:19:50;;;;;;;2.40;2.20;;;15.70;48.40;;;;;;5149982;27;20557;-77
2024/04/25 02:27:54;;;;;;;2.13;2.03;;;15.70;48.50;;;;;;5181309;27;20489;-78
2024/04/25 02:30:24;;;;;;;2.50;2.30;;;15.70;48.40;;;;;;5211857;27;20477;-78
2024/04/25 02:32:53;;;;;;;2.90;2.60;;;15.70;48.40;;;;;;5184892;27;20479;-77
2024/04/25 02:35:22;;;;;;;2.50;2.30;;;15.70;48.30;;;;;;5212796;27;20481;-78
2024/04/25 02:37:52;;;;;;;2.47;2.30;;;15.70;48.30;;;;;;5201413;27;20535;-79
2024/04/25 02:40:22;;;;;;;2.20;2.10;;;15.60;48.20;;;;;;5150838;27;20466;-76
2024/04/25 02:42:55;;;;;;;2.10;2.00;;;15.60;48.30;;;;;;5179769;27;21008;-78
2024/04/25 02:45:25;;;;;;;2.20;2.00;;;15.60;48.30;;;;;;5180045;27;20486;-79
2024/04/25 02:47:52;;;;;;;4.10;2.43;;;15.60;48.30;;;;;;5179401;27;20514;-79
2024/04/25 02:50:23;;;;;;;10.37;6.73;;;15.60;48.20;;;;;;5179079;27;20486;-78
2024/04/25 02:52:50;;;;;;;15.23;9.10;;;15.60;48.20;;;;;;5180224;27;20519;-78
2024/04/25 02:55:20;;;;;;;12.93;8.97;;;15.60;48.20;;;;;;5178876;27;20462;-78
2024/04/25 02:57:47;;;;;;;18.23;11.40;;;15.50;48.20;;;;;;5179969;27;20463;-78
2024/04/25 03:00:20;;;;;;;20.27;12.07;;;15.50;48.20;;;;;;5179746;27;20587;-78
2024/04/25 03:02:49;;;;;;;22.70;14.20;;;15.50;48.20;;;;;;5139340;27;20481;-79
2024/04/25 03:05:20;;;;;;;22.30;14.67;;;15.50;48.30;;;;;;5190409;27;20590;-80
2024/04/25 03:07:48;;;;;;;29.10;17.30;;;15.50;48.20;;;;;;5193180;27;20510;-78
2024/04/25 03:10:18;;;;;;;28.30;16.87;;;15.50;48.10;;;;;;5186856;27;20476;-78
2024/04/25 03:12:45;;;;;;;31.93;18.53;;;15.50;48.30;;;;;;5185208;27;20577;-78
2024/04/25 03:15:16;;;;;;;33.73;19.97;;;15.50;48.20;;;;;;5151197;27;20479;-79
2024/04/25 03:17:46;;;;;;;32.10;19.73;;;15.50;48.20;;;;;;5151087;27;20486;-78
2024/04/25 03:20:17;;;;;;;32.27;19.70;;;15.50;48.10;;;;;;5179497;27;20475;-78
2024/04/25 03:22:44;;;;;;;32.90;20.20;;;15.50;48.30;;;;;;5151018;27;20515;-78
2024/04/25 03:25:14;;;;;;;33.23;20.30;;;15.50;48.10;;;;;;5180134;27;20475;-78
2024/04/25 03:27:42;;;;;;;33.93;20.83;;;15.50;48.10;;;;;;5180295;27;20553;-78
2024/04/25 03:30:13;;;;;;;36.43;21.23;;;15.60;48.40;;;;;;5179943;27;21032;-79
2024/04/25 03:32:43;;;;;;;36.00;20.93;;;15.50;48.10;;;;;;5180353;27;20534;-79
2024/04/25 03:35:13;;;;;;;38.43;22.07;;;15.50;48.10;;;;;;5179924;27;20823;-78
2024/04/25 03:37:44;;;;;;;34.10;20.73;;;15.50;48.10;;;;;;5179764;27;20501;-78
2024/04/25 03:40:14;;;;;;;34.73;21.37;;;15.50;48.10;;;;;;5125756;27;21008;-79
2024/04/25 03:42:45;;;;;;;36.53;21.00;;;15.50;48.20;;;;;;5180040;27;20589;-79
2024/04/25 03:45:15;;;;;;;35.90;21.20;;;15.50;48.00;;;;;;5179734;27;20520;-78
2024/04/25 03:47:44;;;;;;;36.17;22.00;;;15.50;48.10;;;;;;5180228;27;20478;-78
2024/04/25 03:50:20;;;;;;;36.77;21.43;;;15.60;48.20;;;;;;5179613;27;20527;-79
2024/04/25 03:52:51;;;;;;;35.27;21.40;;;15.50;48.00;;;;;;5179934;27;20470;-80
2024/04/25 03:55:21;;;;;;;31.47;19.20;;;15.50;48.10;;;;;;5180249;27;20471;-79
2024/04/25 03:57:48;;;;;;;35.40;21.30;;;15.50;48.30;;;;;;5151738;27;20930;-79
2024/04/25 04:00:21;;;;;;;32.87;20.77;;;15.50;48.20;;;;;;5151491;27;20510;-79
2024/04/25 04:02:51;;;;;;;35.37;20.73;;;15.50;48.10;;;;;;5181091;27;20580;-79
2024/04/25 04:05:24;;;;;;;35.80;20.50;;;15.50;48.20;;;;;;5173211;27;20577;-78
2024/04/25 04:07:55;;;;;;;33.07;19.40;;;15.50;48.20;;;;;;5179081;27;20479;-79
2024/04/25 04:10:25;;;;;;;32.43;19.90;;;15.50;48.20;;;;;;5191151;27;20510;-79
2024/04/25 04:12:56;;;;;;;31.70;19.70;;;15.50;48.20;;;;;;5179357;27;20531;-79
2024/04/25 04:15:26;;;;;;;31.30;18.30;;;15.50;48.20;;;;;;5180197;27;20470;-79
2024/04/25 04:17:56;;;;;;;32.10;18.80;;;15.50;48.20;;;;;;5182811;27;20502;-78
2024/04/25 04:20:30;;;;;;;29.63;18.30;;;15.50;48.30;;;;;;5157072;27;20545;-79
2024/04/25 04:23:00;;;;;;;30.70;18.83;;;15.50;48.20;;;;;;5212519;27;20477;-78
2024/04/25 04:25:30;;;;;;;30.70;18.07;;;15.50;48.30;;;;;;5207610;27;20465;-76
2024/04/25 04:28:00;;;;;;;28.30;17.90;;;15.50;48.40;;;;;;5184479;27;20511;-77
2024/04/25 04:30:30;;;;;;;29.00;17.43;;;15.50;48.30;;;;;;5178753;27;20561;-76
2024/04/25 04:33:00;;;;;;;27.90;17.30;;;15.50;48.30;;;;;;5179303;27;20563;-78
2024/04/25 04:35:33;;;;;;;26.20;17.03;;;15.50;48.20;;;;;;5177878;27;20528;-79
2024/04/25 04:38:01;;;;;;;27.60;17.50;;;15.50;48.20;;;;;;5178382;27;20530;-79
2024/04/25 04:40:31;;;;;;;24.60;15.77;;;15.50;48.10;;;;;;5200022;27;20490;-80
2024/04/25 04:43:01;;;;;;;26.47;15.73;;;15.50;48.10;;;;;;5196944;27;20585;-79
2024/04/25 04:45:32;;;;;;;28.83;17.23;;;15.50;48.30;;;;;;5165666;27;20482;-78
2024/04/25 04:48:02;;;;;;;26.57;16.83;;;15.50;48.20;;;;;;5178460;27;20579;-80
2024/04/25 04:50:39;;;;;;;24.83;15.33;;;15.50;48.10;;;;;;5175247;27;20535;-79
2024/04/25 04:53:09;;;;;;;24.20;15.70;;;15.50;48.20;;;;;;5197350;27;20522;-78
2024/04/25 04:55:42;;;;;;;23.80;14.90;;;15.50;48.20;;;;;;5210802;27;20512;-78
2024/04/25 04:58:12;;;;;;;25.60;15.07;;;15.50;48.20;;;;;;5182337;27;20500;-78
2024/04/25 05:00:42;;;;;;;25.07;15.17;;;15.50;48.20;;;;;;5211351;27;20473;-79
2024/04/25 05:03:14;;;;;;;22.00;13.97;;;15.50;48.20;;;;;;5193887;27;20491;-78
2024/04/25 05:05:47;;;;;;;25.30;15.43;;;15.50;48.20;;;;;;5178255;27;20466;-78
2024/04/25 05:08:17;;;;;;;26.20;15.50;;;15.50;48.10;;;;;;5178278;27;20517;-78
2024/04/25 05:10:47;;;;;;;25.33;14.80;;;15.50;48.20;;;;;;5202892;27;20461;-79
2024/04/25 05:13:18;;;;;;;23.40;14.03;;;15.50;48.10;;;;;;5197937;27;20525;-78
2024/04/25 05:15:48;;;;;;;21.27;13.90;;;15.50;48.10;;;;;;5179040;27;20513;-77
2024/04/25 05:18:18;;;;;;;24.13;14.43;;;15.50;48.20;;;;;;5180826;27;20521;-77
2024/04/25 05:20:51;;;;;;;23.83;14.30;;;15.50;48.10;;;;;;5203290;27;20501;-77
2024/04/25 05:23:21;;;;;;;24.47;14.00;;;15.60;48.20;;;;;;5211381;27;20502;-78
2024/04/25 05:25:52;;;;;;;21.10;13.13;;;15.60;48.10;;;;;;5211513;27;20506;-77
2024/04/25 05:28:22;;;;;;;23.13;13.63;;;15.60;48.10;;;;;;5211659;27;20457;-78
2024/04/25 05:30:52;;;;;;;24.73;13.93;;;15.60;48.10;;;;;;5210761;27;20457;-78
2024/04/25 05:33:22;;;;;;;21.63;14.17;;;15.60;48.00;;;;;;5183008;27;20442;-79
2024/04/25 05:35:56;;;;;;;22.13;13.70;;;15.60;48.10;;;;;;5210959;27;20519;-79
2024/04/25 05:38:26;;;;;;;23.37;14.07;;;15.60;48.10;;;;;;5210863;27;20584;-76
2024/04/25 05:40:56;;;;;;;19.47;13.13;;;15.60;48.10;;;;;;5210874;27;20518;-76
2024/04/25 05:43:26;;;;;;;21.00;13.80;;;15.60;48.00;;;;;;5210917;27;20501;-78
2024/04/25 05:45:58;;;;;;;19.30;12.03;;;15.60;47.90;;;;;;5210673;27;20478;-77
2024/04/25 05:48:32;;;;;;;17.47;12.23;;;15.70;48.00;;;;;;5210699;27;20540;-78
2024/04/25 05:51:06;;;;;;;21.50;12.90;;;15.70;47.90;;;;;;5210928;27;20966;-77
2024/04/25 05:53:36;;;;;;;21.43;12.50;;;15.70;47.90;;;;;;5210986;27;20576;-79
2024/04/25 05:56:07;;;;;;;17.30;12.00;;;15.70;47.80;;;;;;5211257;27;20528;-76
2024/04/25 05:58:39;;;;;;;18.20;12.10;;;15.80;47.90;;;;;;5210798;27;20464;-79
2024/04/25 06:01:09;;;;;;;17.90;11.87;;;15.80;47.80;;;;;;5168232;27;20588;-79
2024/04/25 06:03:39;;;;;;;14.67;10.23;;;15.80;47.70;;;;;;5191663;27;20487;-79
2024/04/25 06:06:12;;;;;;;18.20;11.80;;;15.90;47.80;;;;;;5174315;27;20541;-79
2024/04/25 06:08:42;;;;;;;16.27;10.97;;;15.90;47.70;;;;;;5177675;27;20573;-78
2024/04/25 06:11:13;;;;;;;14.87;10.40;;;15.90;47.50;;;;;;5176134;27;20532;-79
2024/04/25 06:13:43;;;;;;;15.33;10.53;;;16.00;47.80;;;;;;5193625;27;20485;-79
2024/04/25 06:16:13;;;;;;;19.43;11.20;;;16.00;47.60;;;;;;5124820;27;20487;-79
2024/04/25 06:18:46;;;;;;;12.67;9.03;;;16.10;47.70;;;;;;5181911;27;20454;-79
2024/04/25 06:21:19;;;;;;;13.63;9.63;;;16.10;47.40;;;;;;5182880;27;20514;-79
2024/04/25 06:23:49;;;;;;;16.80;11.07;;;16.10;47.50;;;;;;5177006;27;20567;-78
2024/04/25 06:26:19;;;;;;;16.30;10.40;;;16.20;47.60;;;;;;5148118;27;20479;-79
2024/04/25 06:28:49;;;;;;;16.13;10.57;;;16.20;47.50;;;;;;5149568;27;20542;-78
2024/04/25 06:31:19;;;;;;;12.90;9.20;;;16.30;47.50;;;;;;5183470;27;20466;-78
2024/04/25 06:33:49;;;;;;;13.63;9.67;;;16.40;47.40;;;;;;5169217;27;20475;-79
2024/04/25 06:36:22;;;;;;;13.30;9.30;;;16.40;47.40;;;;;;5148460;27;20505;-79
2024/04/25 06:38:52;;;;;;;14.33;9.60;;;16.50;47.30;;;;;;5148565;27;20532;-80
2024/04/25 06:41:22;;;;;;;14.70;9.10;;;16.50;47.30;;;;;;5155899;27;20486;-79
2024/04/25 06:43:52;;;;;;;13.23;9.00;;;16.60;47.40;;;;;;5152587;27;20546;-79
2024/04/25 06:46:26;;;;;;;11.50;8.60;;;16.60;47.20;;;;;;5172982;27;20459;-79
2024/04/25 06:48:56;;;;;;;12.90;8.70;;;16.70;47.30;;;;;;5188843;27;20474;-80
2024/04/25 06:51:33;;;;;;;13.03;9.20;;;16.80;47.20;;;;;;5180893;27;20542;-79
2024/04/25 06:54:03;;;;;;;10.23;7.70;;;16.80;47.10;;;;;;5163121;27;20593;-78
2024/04/25 06:56:34;;;;;;;11.50;7.83;;;16.70;47.00;;;;;;5170425;27;20589;-79
2024/04/25 06:59:04;;;;;;;9.90;7.70;;;16.70;47.20;;;;;;5179061;27;21039;-79
2024/04/25 07:01:35;;;;;;;10.40;7.83;;;16.60;47.30;;;;;;5171334;27;20528;-78
2024/04/25 07:04:05;;;;;;;9.90;7.10;;;16.70;47.40;;;;;;5199722;27;20541;-79
2024/04/25 07:06:38;;;;;;;9.60;7.17;;;16.70;47.50;;;;;;5179670;27;20597;-79
2024/04/25 07:09:08;;;;;;;10.83;7.33;;;16.80;47.40;;;;;;5119756;27;20487;-81
2024/04/25 07:11:38;;;;;;;10.50;7.87;;;16.80;47.30;;;;;;5166374;27;20526;-81
2024/04/25 07:14:08;;;;;;;9.43;6.53;;;16.80;47.20;;;;;;5179041;27;20577;-81
2024/04/25 07:16:38;;;;;;;9.63;6.33;;;16.80;47.30;;;;;;5166233;27;20475;-79
2024/04/25 07:19:08;;;;;;;10.10;7.40;;;16.90;47.40;;;;;;5136497;27;20480;-78
2024/04/25 07:21:41;;;;;;;9.10;6.93;;;16.90;47.40;;;;;;5173798;27;20530;-79
2024/04/25 07:24:12;;;;;;;9.90;6.80;;;16.90;47.40;;;;;;5169674;27;20522;-78
2024/04/25 07:26:43;;;;;;;8.40;6.20;;;17.00;47.40;;;;;;5170790;27;20596;-78
2024/04/25 07:29:13;;;;;;;9.03;7.00;;;17.00;47.20;;;;;;5171721;27;20599;-82
2024/04/25 07:31:43;;;;;;;8.83;6.47;;;17.10;47.20;;;;;;5142301;27;20547;-82
2024/04/25 07:34:14;;;;;;;10.00;6.83;;;17.20;47.10;;;;;;5174767;27;20600;-78
2024/04/25 07:36:48;;;;;;;8.70;6.00;;;17.20;47.00;;;;;;5172352;27;20490;-78
2024/04/25 07:39:18;;;;;;;8.37;6.90;;;17.30;47.10;;;;;;5154558;27;20484;-79
2024/04/25 07:41:50;;;;;;;8.10;6.07;;;17.30;46.90;;;;;;5169821;27;20488;-80
2024/04/25 07:44:20;;;;;;;8.40;6.63;;;17.40;46.90;;;;;;5168830;27;20496;-79
2024/04/25 07:46:51;;;;;;;8.60;6.60;;;17.50;46.90;;;;;;5179586;27;20470;-79
2024/04/25 07:49:21;;;;;;;10.40;7.33;;;17.50;46.90;;;;;;5172676;27;20597;-78
2024/04/25 07:51:54;;;;;;;8.33;6.30;;;17.70;47.00;;;;;;5167009;27;20873;-79
2024/04/25 07:54:24;;;;;;;7.33;5.90;;;17.70;47.00;;;;;;5182817;27;20475;-80
2024/04/25 07:56:54;;;;;;;6.70;6.00;;;17.90;47.10;;;;;;5174220;27;20521;-79
2024/04/25 07:59:25;;;;;;;7.60;5.63;;;18.00;47.00;;;;;;5178567;27;20601;-78
2024/04/25 08:01:55;;;;;;;9.30;6.40;;;18.10;47.10;;;;;;5188433;27;20490;-80
2024/04/25 08:04:26;;;;;;;6.83;5.73;;;18.30;47.40;;;;;;5162644;27;20546;-78
2024/04/25 08:07:02;;;;;;;8.50;5.63;;;18.30;47.20;;;;;;5201219;27;20477;-82
2024/04/25 08:09:34;;;;;;;6.07;5.40;;;18.40;47.00;;;;;;5184184;27;20531;-79
2024/04/25 08:12:04;;;;;;;7.30;5.97;;;18.40;47.00;;;;;;5194446;27;20575;-80
2024/04/25 08:14:35;;;;;;;6.93;5.70;;;18.50;47.00;;;;;;5211472;27;20535;-80
2024/04/25 08:17:05;;;;;;;7.70;5.53;;;18.50;47.00;;;;;;5213212;27;20562;-80
2024/04/25 08:19:36;;;;;;;7.77;6.00;;;18.50;46.90;;;;;;5212831;27;20473;-80
2024/04/25 08:22:08;;;;;;;8.10;5.30;;;18.60;47.00;;;;;;5212924;27;20453;-80
2024/04/25 08:24:38;;;;;;;6.57;5.43;;;18.70;47.20;;;;;;5212753;27;20519;-80
2024/04/25 08:27:09;;;;;;;6.10;5.00;;;18.80;47.30;;;;;;5183967;27;20524;-79
2024/04/25 08:29:39;;;;;;;7.10;5.70;;;19.00;47.20;;;;;;5212975;27;20486;-80
2024/04/25 08:32:09;;;;;;;6.07;4.90;;;19.20;47.50;;;;;;5221766;27;20457;-85
2024/04/25 08:34:39;;;;;;;7.07;4.93;;;19.40;47.30;;;;;;5234033;27;20515;-85
2024/04/25 08:37:12;;;;;;;6.67;5.50;;;19.60;47.20;;;;;;5233734;27;20545;-83
2024/04/25 08:39:42;;;;;;;4.73;4.27;;;19.80;47.20;;;;;;5226361;27;20473;-80
2024/04/25 08:42:12;;;;;;;5.13;4.57;;;20.00;47.30;;;;;;5216169;27;20473;-80
2024/04/25 08:44:42;;;;;;;4.33;4.00;;;20.30;47.30;;;;;;5184953;27;20574;-80
2024/04/25 08:47:13;;;;;;;6.77;4.60;;;20.60;47.30;;;;;;5201149;27;20597;-80
2024/04/25 08:50:16;;;;;;;5.17;4.67;;;20.80;47.00;;;;;;5155876;27;20542;-80
2024/04/25 08:53:03;;;;;;;5.37;4.87;;;20.90;46.80;;;;;;5159086;27;20478;-80
2024/04/25 08:55:34;;;;;;;6.10;4.90;;;21.00;46.80;;;;;;5189922;27;20998;-81
2024/04/25 08:58:05;;;;;;;5.60;4.17;;;21.10;46.80;;;;;;5179450;27;20490;-80
2024/04/25 09:00:35;;;;;;;7.17;4.27;;;21.20;46.60;;;;;;5171975;27;20485;-80
2024/04/25 09:03:07;;;;;;;5.50;4.00;;;21.20;46.50;;;;;;5193922;27;20581;-80
2024/04/25 09:05:37;;;;;;;4.77;4.20;;;21.20;46.60;;;;;;5185787;27;20522;-82
2024/04/25 09:08:10;;;;;;;5.20;4.20;;;21.10;46.60;;;;;;5191395;27;20518;-80
2024/04/25 09:10:41;;;;;;;4.50;4.10;;;20.90;46.60;;;;;;5195268;27;20573;-81
2024/04/25 09:13:11;;;;;;;4.53;4.10;;;20.80;46.90;;;;;;5160848;27;20544;-81
2024/04/25 09:15:42;;;;;;;4.03;3.63;;;20.70;46.90;;;;;;5180408;27;20601;-80
2024/04/25 09:18:12;;;;;;;5.80;3.70;;;20.60;47.00;;;;;;5207405;27;20473;-80
2024/04/25 09:20:44;;;;;;;4.50;3.70;;;20.60;47.30;;;;;;5183665;27;20494;-80
2024/04/25 09:23:17;;;;;;;5.30;3.30;;;20.50;47.10;;;;;;5192652;27;20482;-80
2024/04/25 09:25:47;;;;;;;4.53;3.73;;;20.60;47.30;;;;;;5178045;27;20474;-80
2024/04/25 09:28:17;;;;;;;5.17;3.60;;;20.60;47.20;;;;;;5196435;27;20474;-80
2024/04/25 09:30:49;;;;;;;4.20;3.40;;;20.60;47.10;;;;;;5180794;27;20601;-80
2024/04/25 09:33:21;;;;;;;4.73;3.60;;;20.70;47.80;;;;;;5151682;27;20494;-81
2024/04/25 09:35:51;;;;;;;6.07;3.90;;;20.80;47.20;;;;;;5180839;27;20912;-80
2024/04/25 09:38:24;;;;;;;4.47;3.27;;;21.00;47.30;;;;;;5152201;27;20486;-81
2024/04/25 09:40:54;;;;;;;4.13;3.27;;;21.20;46.80;;;;;;5157784;27;20497;-80
2024/04/25 09:43:24;;;;;;;4.70;3.20;;;21.40;46.90;;;;;;5182042;27;20479;-82
2024/04/25 09:45:54;;;;;;;4.30;3.17;;;21.70;46.80;;;;;;5180736;27;20490;-80
2024/04/25 09:48:25;;;;;;;5.30;3.20;;;21.90;46.70;;;;;;5182670;27;20474;-80
2024/04/25 09:50:56;;;;;;;3.30;2.90;;;22.00;46.40;;;;;;5174960;27;20530;-81
2024/04/25 09:53:34;;;;;;;5.93;3.30;;;22.20;46.10;;;;;;5164584;27;20484;-80
2024/04/25 09:56:07;;;;;;;3.53;3.20;;;22.40;46.30;;;;;;5185181;27;20542;-80
2024/04/25 09:58:41;;;;;;;3.40;3.10;;;22.50;45.90;;;;;;5182920;27;20489;-80
2024/04/25 10:01:11;;;;;;;6.30;2.93;;;22.70;46.00;;;;;;5185992;27;20473;-81
2024/04/25 10:03:41;;;;;;;4.33;2.60;;;22.80;45.60;;;;;;5179919;27;20519;-80
2024/04/25 10:06:26;;;;;;;2.93;2.73;;;22.90;45.50;;;;;;5189058;27;20538;-81
2024/04/25 10:08:59;;;;;;;3.27;2.97;;;22.90;45.40;;;;;;5196426;27;20442;-81
2024/04/25 10:11:30;;;;;;;2.53;2.33;;;23.00;45.50;;;;;;5198474;27;20483;-80
2024/04/25 10:14:01;;;;;;;4.50;2.37;;;22.90;45.30;;;;;;5186118;27;20542;-80
2024/04/25 10:16:31;;;;;;;3.50;2.90;;;23.00;45.40;;;;;;5187658;27;20474;-81
2024/04/25 10:19:01;;;;;;;3.37;3.07;;;23.10;45.30;;;;;;5187206;27;20562;-81
2024/04/25 10:21:32;;;;;;;2.90;2.70;;;23.20;45.60;;;;;;5178877;27;20495;-80
2024/04/25 10:24:15;;;;;;;3.07;2.77;;;23.40;45.60;;;;;;5173158;27;20488;-79
2024/04/25 10:26:47;;;;;;;3.13;2.47;;;23.60;45.40;;;;;;5164765;27;20473;-80
2024/04/25 10:29:17;;;;;;;3.80;2.80;;;23.80;45.30;;;;;;5158396;27;20497;-79
2024/04/25 10:31:48;;;;;;;2.83;2.57;;;24.10;45.10;;;;;;5159232;27;20561;-79
2024/04/25 10:34:18;;;;;;;2.23;2.00;;;24.20;44.70;;;;;;5197871;27;20474;-78
2024/04/25 10:36:49;;;;;;;2.60;2.40;;;24.30;44.70;;;;;;5192114;27;20539;-79
2024/04/25 10:39:21;;;;;;;2.83;2.60;;;24.50;44.50;;;;;;5186125;27;20482;-80
2024/04/25 10:41:52;;;;;;;3.23;2.50;;;24.60;44.40;;;;;;5190501;27;20558;-78
2024/04/25 10:44:22;;;;;;;2.80;2.07;;;24.80;44.30;;;;;;5161265;27;20457;-80
2024/04/25 10:46:52;;;;;;;3.47;2.73;;;24.80;43.90;;;;;;5177224;27;20874;-81
2024/04/25 10:49:22;;;;;;;2.83;1.97;;;24.90;44.00;;;;;;5190767;27;21018;-79
2024/04/25 10:51:53;;;;;;;2.97;2.33;;;24.90;43.60;;;;;;5202056;27;20463;-80
2024/04/25 10:54:26;;;;;;;5.13;2.00;;;24.90;43.80;;;;;;5201370;27;20577;-79
2024/04/25 10:56:56;;;;;;;2.30;2.10;;;25.10;44.00;;;;;;5178821;27;20455;-79
2024/04/25 10:59:29;;;;;;;4.07;2.70;;;25.20;43.60;;;;;;5183331;27;20579;-79
2024/04/25 11:02:04;;;;;;;2.17;1.97;;;25.40;43.80;;;;;;5172849;27;20571;-80
2024/04/25 11:04:34;;;;;;;2.27;2.17;;;25.70;43.50;;;;;;5191422;27;20502;-80
2024/04/25 11:07:04;;;;;;;2.80;2.13;;;25.90;43.30;;;;;;5178182;27;20467;-80
2024/04/25 11:09:38;;;;;;;5.37;2.30;;;26.20;43.10;;;;;;5169988;27;20473;-80
2024/04/25 11:12:10;;;;;;;2.37;2.10;;;26.60;42.80;;;;;;5181887;27;20558;-80
2024/04/25 11:14:42;;;;;;;2.50;1.87;;;26.90;42.40;;;;;;5192519;27;20522;-80
2024/04/25 11:17:15;;;;;;;1.90;1.80;;;27.10;41.90;;;;;;5185939;27;20485;-80
2024/04/25 11:19:45;;;;;;;2.27;1.93;;;27.50;41.70;;;;;;5185081;27;21072;-81
2024/04/25 11:22:19;;;;;;;2.10;2.00;;;27.90;41.20;;;;;;5179065;27;20531;-80
2024/04/25 11:25:18;;;;;;;2.40;2.20;;;27.80;39.90;;;;;;5174613;27;20852;-79
2024/04/25 11:27:50;;;;;;;2.70;1.77;;;27.30;40.10;;;;;;5181511;27;20509;-80
2024/04/25 11:30:20;;;;;;;1.93;1.83;;;26.90;40.60;;;;;;5153874;27;20523;-80
2024/04/25 11:32:50;;;;;;;2.03;1.80;;;26.50;41.00;;;;;;5187099;27;20582;-80
2024/04/25 11:35:22;;;;;;;2.80;1.83;;;26.30;41.20;;;;;;5181453;27;20451;-80
2024/04/25 11:37:52;;;;;;;3.33;1.43;;;26.00;41.40;;;;;;5180409;27;20491;-81
2024/04/25 11:40:38;;;;;;;2.47;1.83;;;25.80;41.80;;;;;;5182344;27;20494;-81
2024/04/25 11:43:08;;;;;;;2.87;2.10;;;25.60;42.00;;;;;;5141433;27;20520;-80
2024/04/25 11:45:41;;;;;;;2.60;1.73;;;25.40;42.10;;;;;;5190592;27;20445;-81
2024/04/25 11:48:12;;;;;;;2.27;2.07;;;25.40;42.40;;;;;;5188021;27;20479;-87
2024/04/25 11:50:42;;;;;;;2.07;1.60;;;25.40;42.40;;;;;;5180410;27;20485;-87
2024/04/25 11:53:12;;;;;;;2.67;1.80;;;25.30;42.20;;;;;;5176386;27;20526;-83
2024/04/25 11:55:45;;;;;;;3.27;1.80;;;25.20;42.10;;;;;;5195339;27;20509;-81
2024/04/25 11:58:15;;;;;;;2.93;1.70;;;25.20;42.20;;;;;;5208804;27;21118;-80
2024/04/25 12:00:47;;;;;;;1.77;1.67;;;25.10;42.20;;;;;;5191382;27;20542;-80
2024/04/25 12:03:19;;;;;;;2.03;1.90;;;25.00;42.10;;;;;;5181871;27;20467;-80
2024/04/25 12:05:49;;;;;;;4.17;1.50;;;24.90;42.20;;;;;;5151125;27;20470;-80
2024/04/25 12:08:19;;;;;;;1.60;1.43;;;24.80;42.20;;;;;;5153958;27;20455;-81
2024/04/25 12:10:53;;;;;;;4.20;1.83;;;24.60;42.20;;;;;;5183587;27;20579;-81
2024/04/25 12:13:23;;;;;;;2.30;1.33;;;24.50;42.20;;;;;;5201947;27;20535;-82
2024/04/25 12:15:53;;;;;;;2.60;1.80;;;24.50;42.50;;;;;;5185723;27;20585;-81
2024/04/25 12:18:23;;;;;;;3.40;1.83;;;24.50;42.30;;;;;;5153704;27;20475;-81
2024/04/25 12:20:59;;;;;;;2.53;1.50;;;24.70;42.60;;;;;;5181450;27;20503;-81
2024/04/25 12:23:33;;;;;;;2.50;1.70;;;24.90;42.30;;;;;;5177833;27;20542;-79
2024/04/25 12:26:06;;;;;;;1.70;1.60;;;25.10;42.10;;;;;;5180658;27;20458;-80
2024/04/25 12:28:38;;;;;;;2.87;2.03;;;25.30;41.70;;;;;;5178253;27;20458;-79
2024/04/25 12:31:08;;;;;;;1.70;1.60;;;25.30;41.20;;;;;;5182451;27;21112;-80
2024/04/25 12:33:40;;;;;;;5.53;1.40;;;25.30;41.10;;;;;;5204132;27;20565;-80
2024/04/25 12:36:10;;;;;;;2.37;1.40;;;25.30;41.10;;;;;;5179257;27;20569;-80
2024/04/25 12:38:40;;;;;;;1.60;1.50;;;25.30;41.30;;;;;;5188458;27;20470;-81
2024/04/25 12:41:13;;;;;;;3.77;1.63;;;25.30;41.10;;;;;;5143064;27;20443;-81
2024/04/25 12:43:44;;;;;;;1.93;1.40;;;25.20;41.20;;;;;;5161191;27;20483;-80
2024/04/25 12:46:14;;;;;;;3.80;1.50;;;25.10;41.30;;;;;;5158695;27;20455;-80
2024/04/25 12:48:45;;;;;;;2.73;1.70;;;25.20;41.70;;;;;;5180901;27;20494;-80
2024/04/25 12:51:16;;;;;;;2.00;1.70;;;25.60;41.10;;;;;;5205754;27;20582;-80
2024/04/25 12:53:46;;;;;;;2.67;1.70;;;25.90;40.20;;;;;;5159778;27;20515;-79
2024/04/25 12:56:19;;;;;;;3.20;1.53;;;25.90;40.30;;;;;;5189833;27;20537;-81
2024/04/25 12:58:49;;;;;;;1.63;1.30;;;25.80;40.20;;;;;;5184349;27;20526;-79
2024/04/25 13:01:19;;;;;;;2.87;1.67;;;25.70;40.00;;;;;;5182477;27;20482;-80
2024/04/25 13:03:51;;;;;;;1.87;1.53;;;25.50;40.00;;;;;;5195968;27;20499;-79
2024/04/25 13:06:21;;;;;;;2.73;1.80;;;25.20;40.00;;;;;;5187334;27;20874;-79